Time;durP1;ratioP1;P1;durP2;ratioP2;P2;SDS_P1;SDS_P2;PMS_P1;PMS_P2;Temp;Humidity;BMP_temperature;BMP_pressure;BME280_temperature;BME280_humidity;BME280_pressure;Samples;Min_cycle;Max_cycle;Signal;HPM_P1;HPM_P2
2021/09/19 00:02:25;;;;;;;5.38;4.88;;;20.80;72.60;;;;;;10414379;28;20021;-59
2021/09/19 00:07:26;;;;;;;4.97;4.43;;;20.80;71.90;;;;;;10412458;28;20042;-59
2021/09/19 00:12:27;;;;;;;4.72;4.32;;;20.70;72.40;;;;;;10415611;28;20029;-59
2021/09/19 00:17:27;;;;;;;5.15;4.63;;;20.80;71.80;;;;;;10422598;28;20104;-59
2021/09/19 00:22:28;;;;;;;5.00;4.25;;;20.70;71.80;;;;;;10421294;28;20111;-59
2021/09/19 00:27:29;;;;;;;5.00;4.50;;;20.70;71.80;;;;;;10422279;28;20029;-60
2021/09/19 00:32:29;;;;;;;4.78;4.35;;;20.70;71.70;;;;;;10435112;28;20033;-60
2021/09/19 00:37:30;;;;;;;5.40;4.63;;;20.70;71.60;;;;;;10420302;28;20026;-60
2021/09/19 00:42:31;;;;;;;4.78;4.28;;;20.70;71.60;;;;;;10421712;28;20033;-59
2021/09/19 00:47:32;;;;;;;4.47;4.03;;;20.70;71.80;;;;;;10421216;28;20076;-59
2021/09/19 00:52:34;;;;;;;5.28;4.40;;;20.70;71.70;;;;;;10421270;28;20377;-59
2021/09/19 00:57:45;;;;;;;4.90;4.40;;;20.70;71.40;;;;;;10421028;28;20056;-60
2021/09/19 01:02:47;;;;;;;4.65;4.25;;;20.70;71.40;;;;;;10419435;28;20128;-60
2021/09/19 01:07:49;;;;;;;4.97;4.47;;;20.60;71.40;;;;;;10418987;28;20129;-60
2021/09/19 01:12:56;;;;;;;3.95;3.60;;;20.70;71.40;;;;;;10419174;28;20363;-60
2021/09/19 01:17:59;;;;;;;4.40;4.00;;;20.60;71.40;;;;;;10420174;28;20028;-59
2021/09/19 01:23:11;;;;;;;4.43;4.03;;;20.70;71.40;;;;;;10431565;28;20397;-59
2021/09/19 01:28:13;;;;;;;4.38;3.97;;;20.60;71.20;;;;;;10419871;28;20048;-59
2021/09/19 01:33:14;;;;;;;4.10;3.70;;;20.70;71.40;;;;;;10419395;28;20466;-59
2021/09/19 01:38:15;;;;;;;4.57;3.70;;;20.60;71.30;;;;;;10418242;28;20033;-60
2021/09/19 01:43:16;;;;;;;4.82;4.15;;;20.60;71.20;;;;;;10419516;28;20026;-59
2021/09/19 01:48:16;;;;;;;4.10;3.65;;;20.60;71.30;;;;;;10417743;28;20045;-59
2021/09/19 01:53:20;;;;;;;4.60;3.90;;;20.60;71.30;;;;;;10417000;28;20029;-60
2021/09/19 01:58:22;;;;;;;4.72;4.00;;;20.60;71.40;;;;;;10414465;28;20079;-59
2021/09/19 02:03:23;;;;;;;4.25;3.75;;;20.60;71.40;;;;;;10418540;28;20038;-60
2021/09/19 02:08:24;;;;;;;4.07;3.67;;;20.60;71.40;;;;;;10417350;28;20117;-59
2021/09/19 02:13:24;;;;;;;3.83;3.42;;;20.60;71.40;;;;;;10430485;28;20111;-59
2021/09/19 02:18:25;;;;;;;4.30;3.90;;;20.60;71.40;;;;;;10418282;28;20187;-59
2021/09/19 02:23:26;;;;;;;4.60;3.90;;;20.60;71.40;;;;;;10426227;28;20393;-60
2021/09/19 02:28:27;;;;;;;4.55;3.97;;;20.60;71.40;;;;;;10417440;28;20043;-59
2021/09/19 02:33:29;;;;;;;4.25;3.70;;;20.50;71.30;;;;;;10415980;28;20032;-59
2021/09/19 02:38:30;;;;;;;4.25;3.72;;;20.60;71.40;;;;;;10415581;28;20025;-59
2021/09/19 02:43:30;;;;;;;3.90;3.50;;;20.60;71.40;;;;;;10415631;28;20037;-59
2021/09/19 02:48:31;;;;;;;4.22;3.83;;;20.50;71.30;;;;;;10398785;28;20572;-59
2021/09/19 02:53:32;;;;;;;4.03;3.63;;;20.60;71.40;;;;;;10414849;28;20136;-59
2021/09/19 02:58:34;;;;;;;4.25;3.80;;;20.50;71.30;;;;;;10416367;28;20021;-59
2021/09/19 03:03:35;;;;;;;4.18;3.60;;;20.50;71.30;;;;;;10414986;28;20029;-59
2021/09/19 03:08:36;;;;;;;4.30;3.63;;;20.50;71.30;;;;;;10415969;28;20032;-59
2021/09/19 03:13:36;;;;;;;3.75;3.35;;;20.50;71.30;;;;;;10414312;28;20030;-59
2021/09/19 03:18:37;;;;;;;3.60;3.30;;;20.50;71.30;;;;;;10414288;28;20105;-59
2021/09/19 03:23:39;;;;;;;4.68;3.65;;;20.50;71.40;;;;;;10415279;28;20033;-60
2021/09/19 03:28:39;;;;;;;4.50;3.60;;;20.50;71.50;;;;;;10409917;28;20113;-59
2021/09/19 03:33:40;;;;;;;4.05;3.65;;;20.50;71.40;;;;;;10414874;28;20494;-59
2021/09/19 03:38:41;;;;;;;5.05;4.10;;;20.50;71.40;;;;;;10413695;28;20040;-59
2021/09/19 03:43:42;;;;;;;3.92;3.53;;;20.50;71.40;;;;;;10415096;28;20029;-59
2021/09/19 03:48:43;;;;;;;3.88;3.38;;;20.50;71.50;;;;;;10414142;28;20042;-59
2021/09/19 03:53:44;;;;;;;4.20;3.50;;;20.50;71.40;;;;;;10413282;28;20060;-59
2021/09/19 03:58:45;;;;;;;3.70;3.30;;;20.50;71.50;;;;;;10413220;28;20026;-59
2021/09/19 04:03:45;;;;;;;4.75;3.40;;;20.50;71.50;;;;;;10412718;28;20381;-59
2021/09/19 04:08:46;;;;;;;3.78;3.25;;;20.50;71.50;;;;;;10413263;28;20033;-59
2021/09/19 04:13:47;;;;;;;3.15;2.70;;;20.50;71.50;;;;;;10414033;28;20120;-59
2021/09/19 04:18:47;;;;;;;4.65;3.72;;;20.50;71.50;;;;;;10417576;28;20327;-59
2021/09/19 04:23:48;;;;;;;3.72;3.22;;;20.50;71.50;;;;;;10421302;28;20170;-59
2021/09/19 04:28:51;;;;;;;3.13;2.70;;;20.40;71.40;;;;;;10412704;28;20033;-59
2021/09/19 04:33:52;;;;;;;3.15;2.78;;;20.50;71.50;;;;;;10413681;28;20030;-59
2021/09/19 04:38:53;;;;;;;3.53;3.08;;;20.40;71.50;;;;;;10413323;28;20482;-59
2021/09/19 04:43:53;;;;;;;3.92;3.53;;;20.40;71.50;;;;;;10412260;28;20556;-59
2021/09/19 04:48:56;;;;;;;3.30;3.00;;;20.40;71.50;;;;;;10411909;28;20441;-59
2021/09/19 04:53:57;;;;;;;3.28;2.83;;;20.40;71.50;;;;;;10412146;28;20049;-59
2021/09/19 04:58:57;;;;;;;4.63;3.35;;;20.40;71.40;;;;;;10416519;28;20065;-60
2021/09/19 05:03:58;;;;;;;3.67;3.15;;;20.40;71.50;;;;;;10420815;28;20108;-59
2021/09/19 05:08:59;;;;;;;3.65;3.33;;;20.40;71.40;;;;;;10418598;28;20519;-59
2021/09/19 05:14:00;;;;;;;4.53;2.80;;;20.40;71.40;;;;;;10399697;28;20033;-59
2021/09/19 05:19:01;;;;;;;3.70;3.05;;;20.40;71.40;;;;;;10426175;28;20028;-59
2021/09/19 05:24:02;;;;;;;3.35;3.05;;;20.40;71.50;;;;;;10426196;28;20084;-59
2021/09/19 05:29:03;;;;;;;5.65;3.30;;;20.40;71.50;;;;;;10419747;28;20076;-61
2021/09/19 05:34:04;;;;;;;4.68;3.70;;;20.40;72.20;;;;;;10418082;28;20041;-58
2021/09/19 05:39:05;;;;;;;3.80;2.88;;;20.40;72.10;;;;;;10417974;28;20029;-58
2021/09/19 05:44:05;;;;;;;4.85;3.35;;;20.40;72.50;;;;;;10416992;28;20397;-62
2021/09/19 05:49:06;;;;;;;4.80;3.58;;;20.50;72.40;;;;;;10419132;28;20069;-62
2021/09/19 05:54:07;;;;;;;4.75;3.40;;;20.50;72.90;;;;;;10417501;28;20044;-60
2021/09/19 05:59:07;;;;;;;4.90;3.08;;;20.50;72.60;;;;;;10417285;28;20041;-59
2021/09/19 06:04:08;;;;;;;6.00;3.42;;;20.50;72.90;;;;;;10418186;28;20055;-62
2021/09/19 06:09:09;;;;;;;6.22;3.72;;;20.50;73.00;;;;;;10416348;28;20163;-71
2021/09/19 06:14:10;;;;;;;4.20;3.08;;;20.60;72.80;;;;;;10418033;28;20459;-69
2021/09/19 06:19:11;;;;;;;5.63;3.13;;;20.60;72.10;;;;;;10425854;28;20021;-70
2021/09/19 06:24:11;;;;;;;19.67;5.30;;;20.60;72.60;;;;;;10421726;28;20536;-70
2021/09/19 06:29:12;;;;;;;10.25;3.13;;;20.60;72.10;;;;;;10417239;28;20076;-72
2021/09/19 06:34:13;;;;;;;13.50;4.20;;;20.60;72.80;;;;;;10403361;28;20299;-70
2021/09/19 06:39:14;;;;;;;12.85;4.07;;;20.60;72.20;;;;;;10415570;28;20033;-71
2021/09/19 06:44:14;;;;;;;9.88;3.40;;;20.60;72.00;;;;;;10415520;28;20481;-71
2021/09/19 06:49:15;;;;;;;10.35;3.80;;;20.60;71.80;;;;;;10415348;28;20068;-73
2021/09/19 06:54:16;;;;;;;17.95;4.47;;;20.60;71.80;;;;;;10416299;28;20473;-72
2021/09/19 06:59:17;;;;;;;9.77;3.38;;;20.60;71.70;;;;;;10414766;28;20076;-67
2021/09/19 07:04:17;;;;;;;7.13;3.40;;;20.60;72.00;;;;;;10415156;28;20113;-71
2021/09/19 07:09:18;;;;;;;5.85;3.58;;;20.50;72.00;;;;;;10414528;28;20029;-70
2021/09/19 07:14:19;;;;;;;5.53;2.97;;;20.60;72.10;;;;;;10412538;28;20038;-69
2021/09/19 07:19:19;;;;;;;5.75;3.35;;;20.60;72.10;;;;;;10424059;28;20027;-69
2021/09/19 07:24:20;;;;;;;4.28;3.22;;;20.50;72.00;;;;;;10416577;28;20037;-69
2021/09/19 07:29:22;;;;;;;12.13;2.85;;;20.50;72.00;;;;;;10413759;28;20041;-69
2021/09/19 07:34:23;;;;;;;9.13;3.50;;;20.50;72.00;;;;;;10413800;28;20033;-70
2021/09/19 07:39:24;;;;;;;5.95;3.20;;;20.50;71.90;;;;;;10414976;28;20033;-69
2021/09/19 07:44:25;;;;;;;6.65;3.90;;;20.50;71.60;;;;;;10414751;28;20076;-69
2021/09/19 07:49:28;;;;;;;6.20;3.60;;;20.50;71.40;;;;;;10413481;28;20028;-70
2021/09/19 07:54:29;;;;;;;5.70;3.53;;;20.50;71.20;;;;;;10412684;28;20032;-70
2021/09/19 07:59:30;;;;;;;7.45;3.40;;;20.50;71.10;;;;;;10412554;28;20620;-68
2021/09/19 08:04:31;;;;;;;4.90;2.97;;;20.50;71.10;;;;;;10413002;28;20098;-70
2021/09/19 08:09:32;;;;;;;9.25;3.25;;;20.50;71.10;;;;;;10414402;28;20057;-70
2021/09/19 08:14:33;;;;;;;6.93;3.10;;;20.60;71.30;;;;;;10412379;28;20038;-70
2021/09/19 08:19:34;;;;;;;4.82;2.67;;;20.60;71.30;;;;;;10406134;28;20025;-70
2021/09/19 08:24:35;;;;;;;4.78;3.20;;;20.60;71.30;;;;;;10413987;28;20025;-69
2021/09/19 08:29:36;;;;;;;4.95;2.58;;;20.60;71.40;;;;;;10413689;28;20029;-68
2021/09/19 08:34:41;;;;;;;5.05;2.50;;;20.60;71.40;;;;;;10400306;28;20029;-69
2021/09/19 08:39:41;;;;;;;4.40;2.45;;;20.60;71.40;;;;;;10419011;28;20037;-69
2021/09/19 08:44:42;;;;;;;4.32;2.80;;;20.60;71.40;;;;;;10418926;28;20436;-69
2021/09/19 08:49:44;;;;;;;4.47;2.92;;;20.60;71.40;;;;;;10421431;28;20465;-68
2021/09/19 08:54:44;;;;;;;4.07;3.28;;;20.60;71.30;;;;;;10418716;28;20391;-68
2021/09/19 08:59:52;;;;;;;4.43;2.38;;;20.70;71.40;;;;;;10419101;28;20060;-68
2021/09/19 09:04:56;;;;;;;3.55;2.20;;;20.60;71.40;;;;;;10419644;28;20025;-69
2021/09/19 09:09:57;;;;;;;3.80;2.70;;;20.70;71.40;;;;;;10419295;28;20595;-69
2021/09/19 09:15:00;;;;;;;3.00;2.28;;;20.60;71.40;;;;;;10418689;28;20033;-69
2021/09/19 09:20:02;;;;;;;4.47;2.28;;;20.70;71.40;;;;;;10431551;28;20059;-69
2021/09/19 09:25:06;;;;;;;3.08;2.28;;;20.70;71.40;;;;;;10402361;28;20025;-68
2021/09/19 09:30:16;;;;;;;3.88;2.47;;;20.70;71.40;;;;;;10419913;28;20029;-68
2021/09/19 09:35:18;;;;;;;2.60;2.13;;;20.70;71.40;;;;;;10419571;28;20374;-69
2021/09/19 09:40:30;;;;;;;3.78;3.20;;;20.70;71.40;;;;;;10418080;28;20037;-69
2021/09/19 09:45:32;;;;;;;3.20;2.25;;;20.80;71.50;;;;;;10400228;28;20627;-69
2021/09/19 09:50:34;;;;;;;3.22;2.15;;;20.80;71.50;;;;;;10417973;28;20065;-69
2021/09/19 09:55:35;;;;;;;3.30;2.30;;;20.80;71.50;;;;;;10417498;28;20108;-69
2021/09/19 10:00:37;;;;;;;2.55;2.10;;;20.80;71.50;;;;;;10417584;28;20099;-69
2021/09/19 10:05:40;;;;;;;4.18;2.50;;;20.80;71.50;;;;;;10417145;28;20371;-69
2021/09/19 10:10:43;;;;;;;3.00;2.53;;;20.90;71.60;;;;;;10416904;28;20029;-71
2021/09/19 10:15:44;;;;;;;3.28;2.00;;;20.90;71.50;;;;;;10416841;28;20034;-70
2021/09/19 10:20:48;;;;;;;4.60;2.55;;;20.90;71.50;;;;;;10429018;28;20397;-70
2021/09/19 10:26:08;;;;;;;2.95;2.53;;;20.90;71.50;;;;;;10416556;28;20033;-69
2021/09/19 10:31:08;;;;;;;3.75;2.78;;;20.90;71.40;;;;;;10416410;28;20040;-68
2021/09/19 10:36:23;;;;;;;2.72;2.10;;;21.00;71.40;;;;;;10415937;28;20390;-69
2021/09/19 10:41:24;;;;;;;2.70;2.22;;;21.00;71.40;;;;;;10416159;28;20634;-69
2021/09/19 10:46:36;;;;;;;2.63;2.13;;;21.00;71.50;;;;;;10415645;28;20045;-70
2021/09/19 10:51:59;;;;;;;2.60;2.17;;;21.00;71.30;;;;;;10416920;28;20070;-69
2021/09/19 10:56:59;;;;;;;2.75;2.40;;;21.00;71.20;;;;;;10415066;28;20037;-69
2021/09/19 11:02:04;;;;;;;2.38;1.98;;;21.00;71.30;;;;;;10415785;28;20116;-70
2021/09/19 11:07:05;;;;;;;2.17;1.70;;;21.10;71.30;;;;;;10415957;28;20096;-69
2021/09/19 11:12:14;;;;;;;3.17;1.88;;;21.10;71.30;;;;;;10414748;28;20543;-72
2021/09/19 11:17:24;;;;;;;2.40;1.70;;;21.10;71.30;;;;;;10414639;28;20053;-70
2021/09/19 11:22:24;;;;;;;2.42;1.80;;;21.10;71.20;;;;;;10424118;28;20086;-69
2021/09/19 11:27:25;;;;;;;3.38;2.00;;;21.10;71.10;;;;;;10414077;28;20029;-69
2021/09/19 11:32:28;;;;;;;3.05;2.10;;;21.10;71.10;;;;;;10414713;28;20091;-69
2021/09/19 11:37:29;;;;;;;2.42;2.10;;;21.10;71.10;;;;;;10413975;28;20088;-70
2021/09/19 11:42:30;;;;;;;2.42;1.65;;;21.10;71.00;;;;;;10414727;28;20032;-70
2021/09/19 11:47:30;;;;;;;2.45;2.10;;;21.10;71.10;;;;;;10413465;28;20077;-70
2021/09/19 11:52:31;;;;;;;2.15;1.75;;;21.10;71.10;;;;;;10414242;28;20053;-70
2021/09/19 11:57:32;;;;;;;2.22;1.80;;;21.20;71.00;;;;;;10414011;28;20037;-71
2021/09/19 12:02:32;;;;;;;2.25;2.05;;;21.20;71.10;;;;;;10396617;28;20121;-71
2021/09/19 12:07:33;;;;;;;2.40;1.67;;;21.20;71.10;;;;;;10413336;28;20032;-70
2021/09/19 12:12:34;;;;;;;3.05;2.03;;;21.20;71.10;;;;;;10395441;28;20049;-70
2021/09/19 12:17:36;;;;;;;2.50;1.98;;;21.20;71.00;;;;;;10412283;28;20029;-69
2021/09/19 12:22:37;;;;;;;5.28;2.20;;;21.30;70.90;;;;;;10413994;28;20041;-68
2021/09/19 12:27:46;;;;;;;2.90;2.22;;;21.30;70.90;;;;;;10413604;28;20026;-67
2021/09/19 12:32:50;;;;;;;3.28;1.67;;;21.30;71.00;;;;;;10396011;28;20409;-69
2021/09/19 12:37:51;;;;;;;2.85;1.95;;;21.30;70.80;;;;;;10412549;28;20385;-65
2021/09/19 12:43:08;;;;;;;3.72;1.92;;;21.30;70.80;;;;;;10412452;28;20025;-63
2021/09/19 12:48:09;;;;;;;3.28;2.15;;;21.40;70.80;;;;;;10412222;28;20406;-65
2021/09/19 12:53:23;;;;;;;5.60;2.75;;;21.40;70.80;;;;;;10412181;28;20033;-62
2021/09/19 12:58:26;;;;;;;4.85;2.17;;;21.40;70.70;;;;;;10411951;28;20029;-69
2021/09/19 13:03:27;;;;;;;10.80;2.50;;;21.50;70.90;;;;;;10411982;28;20041;-63
2021/09/19 13:08:28;;;;;;;6.82;2.67;;;21.40;71.60;;;;;;10411621;28;20037;-65
2021/09/19 13:13:28;;;;;;;13.38;3.28;;;21.50;71.20;;;;;;10424960;28;20128;-66
2021/09/19 13:18:29;;;;;;;17.40;3.88;;;21.50;71.30;;;;;;10414538;28;20494;-64
2021/09/19 13:23:30;;;;;;;15.82;3.20;;;21.50;71.40;;;;;;10421114;28;20573;-60
2021/09/19 13:28:30;;;;;;;8.75;3.80;;;21.50;71.30;;;;;;10418831;28;20116;-64
2021/09/19 13:33:32;;;;;;;9.95;2.97;;;21.50;71.00;;;;;;10401392;28;20048;-64
2021/09/19 13:38:33;;;;;;;6.20;2.70;;;21.50;71.00;;;;;;10418634;28;20033;-64
2021/09/19 13:43:34;;;;;;;9.13;2.55;;;21.40;70.90;;;;;;10417937;28;20084;-64
2021/09/19 13:48:35;;;;;;;12.65;3.05;;;21.50;70.90;;;;;;10417163;28;20053;-64
2021/09/19 13:53:35;;;;;;;5.18;3.70;;;21.50;71.00;;;;;;10417551;28;20032;-65
2021/09/19 13:58:36;;;;;;;7.47;2.35;;;21.50;70.90;;;;;;10417912;28;20419;-65
2021/09/19 14:03:37;;;;;;;7.90;3.90;;;21.40;70.80;;;;;;10418296;28;20032;-64
2021/09/19 14:08:38;;;;;;;4.07;2.35;;;21.40;70.70;;;;;;10420631;28;20036;-64
2021/09/19 14:13:39;;;;;;;7.75;3.15;;;21.40;70.70;;;;;;10417776;28;20513;-65
2021/09/19 14:18:39;;;;;;;4.25;2.60;;;21.40;70.60;;;;;;10421472;28;20025;-64
2021/09/19 14:23:40;;;;;;;4.90;2.55;;;21.40;70.50;;;;;;10425328;28;20390;-64
2021/09/19 14:28:41;;;;;;;6.00;2.60;;;21.40;70.60;;;;;;10417579;28;20037;-64
2021/09/19 14:33:41;;;;;;;4.90;2.95;;;21.40;70.40;;;;;;10399136;28;20105;-64
2021/09/19 14:38:43;;;;;;;6.68;2.70;;;21.40;70.40;;;;;;10416070;28;20036;-64
2021/09/19 14:43:44;;;;;;;5.63;2.80;;;21.40;70.30;;;;;;10416842;28;20029;-64
2021/09/19 14:48:44;;;;;;;4.25;2.83;;;21.40;70.40;;;;;;10415245;28;20071;-64
2021/09/19 14:53:45;;;;;;;5.28;3.03;;;21.40;70.30;;;;;;10428941;28;20407;-64
2021/09/19 14:58:49;;;;;;;3.85;2.65;;;21.40;70.30;;;;;;10418355;28;20359;-64
2021/09/19 15:03:50;;;;;;;4.20;2.97;;;21.40;70.30;;;;;;10415192;28;20374;-64
2021/09/19 15:08:51;;;;;;;4.95;2.35;;;21.40;70.40;;;;;;10415061;28;20044;-64
2021/09/19 15:13:52;;;;;;;3.75;2.60;;;21.30;70.30;;;;;;10414243;28;20557;-64
2021/09/19 15:18:52;;;;;;;4.03;2.97;;;21.30;70.20;;;;;;10420807;28;20385;-63
2021/09/19 15:23:53;;;;;;;3.25;2.33;;;21.40;70.40;;;;;;10422412;28;20061;-64
2021/09/19 15:28:53;;;;;;;3.75;2.42;;;21.30;70.60;;;;;;10413913;28;20485;-64
2021/09/19 15:33:54;;;;;;;3.80;2.92;;;21.40;70.30;;;;;;10413492;28;20533;-64
2021/09/19 15:38:55;;;;;;;4.13;2.75;;;21.30;70.30;;;;;;10414037;28;20144;-64
2021/09/19 15:43:56;;;;;;;4.25;3.30;;;21.30;70.30;;;;;;10412562;28;20355;-64
2021/09/19 15:49:00;;;;;;;5.10;2.65;;;21.30;70.30;;;;;;10414909;28;20029;-63
2021/09/19 15:54:01;;;;;;;4.70;2.85;;;21.30;70.20;;;;;;10413319;28;20026;-65
2021/09/19 15:59:01;;;;;;;4.10;3.47;;;21.30;70.20;;;;;;10412681;28;20079;-61
2021/09/19 16:04:03;;;;;;;5.93;3.85;;;21.40;71.40;;;;;;10412928;28;20057;-63
2021/09/19 16:09:04;;;;;;;4.60;3.22;;;21.40;71.90;;;;;;10413161;28;20120;-63
2021/09/19 16:14:06;;;;;;;6.20;3.58;;;21.40;72.20;;;;;;10413986;28;20030;-64
2021/09/19 16:19:07;;;;;;;7.45;3.30;;;21.40;72.60;;;;;;10419914;28;20010;-62
2021/09/19 16:24:08;;;;;;;7.20;3.53;;;21.40;72.50;;;;;;10415740;28;20541;-65
2021/09/19 16:29:08;;;;;;;12.85;4.35;;;21.40;72.10;;;;;;10399203;28;20029;-65
2021/09/19 16:34:09;;;;;;;4.40;3.33;;;21.40;72.00;;;;;;10419849;28;20470;-65
2021/09/19 16:39:10;;;;;;;5.65;3.90;;;21.40;71.00;;;;;;10425925;28;20474;-64
2021/09/19 16:44:10;;;;;;;5.75;3.28;;;21.40;70.40;;;;;;10411880;28;20067;-64
2021/09/19 16:49:11;;;;;;;32.35;5.80;;;21.40;70.50;;;;;;10412108;28;20128;-65
2021/09/19 16:54:12;;;;;;;22.65;5.85;;;21.30;70.30;;;;;;10397392;28;20120;-65
2021/09/19 16:59:12;;;;;;;14.05;5.05;;;21.30;70.50;;;;;;10419975;28;20520;-66
2021/09/19 17:04:13;;;;;;;11.50;4.53;;;21.30;70.90;;;;;;10403405;28;20033;-63
2021/09/19 17:09:14;;;;;;;21.58;4.82;;;21.30;71.00;;;;;;10419952;28;20033;-64
2021/09/19 17:14:15;;;;;;;15.75;5.65;;;21.30;71.10;;;;;;10419268;28;20131;-65
2021/09/19 17:19:16;;;;;;;14.07;4.10;;;21.30;71.10;;;;;;10416391;28;20480;-65
2021/09/19 17:24:17;;;;;;;21.58;5.50;;;21.30;71.20;;;;;;10428736;28;20028;-65
2021/09/19 17:29:17;;;;;;;8.30;4.32;;;21.30;71.00;;;;;;10420850;28;20478;-65
2021/09/19 17:34:18;;;;;;;9.52;3.80;;;21.30;70.80;;;;;;10418213;28;20105;-66
2021/09/19 17:39:19;;;;;;;18.65;4.55;;;21.30;70.80;;;;;;10421340;28;20421;-65
2021/09/19 17:44:19;;;;;;;7.88;4.32;;;21.30;70.60;;;;;;10416782;28;20136;-65
2021/09/19 17:49:20;;;;;;;12.88;4.60;;;21.30;70.90;;;;;;10418288;28;20148;-62
2021/09/19 17:54:21;;;;;;;9.10;4.07;;;21.30;71.30;;;;;;10418057;28;20061;-65
2021/09/19 17:59:22;;;;;;;11.95;4.80;;;21.30;71.50;;;;;;10417473;28;20389;-64
2021/09/19 18:04:22;;;;;;;8.00;4.18;;;21.30;71.70;;;;;;10415905;28;20036;-66
2021/09/19 18:09:23;;;;;;;10.85;4.30;;;21.30;71.40;;;;;;10412469;28;20049;-64
2021/09/19 18:14:24;;;;;;;7.78;4.20;;;21.30;70.80;;;;;;10410281;28;20034;-62
2021/09/19 18:19:25;;;;;;;16.80;5.10;;;21.30;70.70;;;;;;10420547;28;20477;-64
2021/09/19 18:24:27;;;;;;;11.32;5.30;;;21.30;70.80;;;;;;10399460;28;20059;-65
2021/09/19 18:29:28;;;;;;;9.55;3.85;;;21.30;71.00;;;;;;10414325;28;20033;-64
2021/09/19 18:34:28;;;;;;;7.28;3.70;;;21.30;71.10;;;;;;10415273;28;20381;-63
2021/09/19 18:39:30;;;;;;;9.02;4.05;;;21.30;71.10;;;;;;10415021;28;20473;-64
2021/09/19 18:44:31;;;;;;;6.53;3.70;;;21.30;71.10;;;;;;10408909;28;20046;-64
2021/09/19 18:49:32;;;;;;;7.43;3.80;;;21.30;71.10;;;;;;10416005;28;20028;-64
2021/09/19 18:54:32;;;;;;;6.63;3.55;;;21.30;71.10;;;;;;10414782;28;20032;-65
2021/09/19 18:59:33;;;;;;;7.93;4.68;;;21.30;71.20;;;;;;10416610;28;20116;-64
2021/09/19 19:04:34;;;;;;;5.68;3.55;;;21.30;71.30;;;;;;10415051;28;20041;-65
2021/09/19 19:09:35;;;;;;;8.23;4.25;;;21.30;71.30;;;;;;10413631;28;20516;-65
2021/09/19 19:14:36;;;;;;;8.27;4.22;;;21.30;71.40;;;;;;10406435;28;20490;-64
2021/09/19 19:19:36;;;;;;;6.70;4.10;;;21.30;70.80;;;;;;10422073;28;20025;-62
2021/09/19 19:24:37;;;;;;;6.07;3.72;;;21.30;70.60;;;;;;10413220;28;20443;-64
2021/09/19 19:29:38;;;;;;;8.60;4.05;;;21.20;70.50;;;;;;10396154;28;20113;-64
2021/09/19 19:34:39;;;;;;;6.85;3.60;;;21.20;70.50;;;;;;10415117;28;20042;-65
2021/09/19 19:39:40;;;;;;;5.28;3.75;;;21.30;70.50;;;;;;10411884;28;20024;-65
2021/09/19 19:44:40;;;;;;;6.57;3.90;;;21.20;70.40;;;;;;10413184;28;20045;-65
2021/09/19 19:49:41;;;;;;;7.05;3.95;;;21.20;70.40;;;;;;10414991;28;20382;-64
2021/09/19 19:54:42;;;;;;;4.78;3.33;;;21.20;70.40;;;;;;10412080;28;20061;-64
2021/09/19 19:59:42;;;;;;;7.18;3.67;;;21.20;70.40;;;;;;10427413;28;20052;-64
2021/09/19 20:04:43;;;;;;;4.47;3.03;;;21.10;70.30;;;;;;10413775;28;20098;-65
2021/09/19 20:09:44;;;;;;;5.97;3.60;;;21.10;70.30;;;;;;10414012;28;20120;-65
2021/09/19 20:14:46;;;;;;;5.88;3.70;;;21.10;70.30;;;;;;10427598;28;20026;-65
2021/09/19 20:19:47;;;;;;;6.07;3.80;;;21.10;70.30;;;;;;10413002;28;20054;-64
2021/09/19 20:24:48;;;;;;;4.10;3.13;;;21.10;70.30;;;;;;10414037;28;20063;-64
2021/09/19 20:29:49;;;;;;;6.97;3.42;;;21.10;70.20;;;;;;10399733;28;20040;-64
2021/09/19 20:34:50;;;;;;;5.70;3.30;;;21.10;70.30;;;;;;10420971;28;20044;-64
2021/09/19 20:39:50;;;;;;;6.07;3.47;;;21.10;70.20;;;;;;10420656;28;20029;-64
2021/09/19 20:44:51;;;;;;;4.18;2.92;;;21.10;70.20;;;;;;10421729;28;20383;-64
2021/09/19 20:49:52;;;;;;;5.13;3.70;;;21.10;70.30;;;;;;10420464;28;20057;-64
2021/09/19 20:54:53;;;;;;;4.38;3.63;;;21.10;70.40;;;;;;10438231;28;20060;-65
2021/09/19 20:59:53;;;;;;;5.05;3.40;;;21.00;70.40;;;;;;10424913;28;20032;-64
2021/09/19 21:04:54;;;;;;;3.88;3.42;;;21.00;70.30;;;;;;10419809;28;20037;-65
2021/09/19 21:09:55;;;;;;;4.47;2.90;;;21.00;70.30;;;;;;10420909;28;20030;-65
2021/09/19 21:14:56;;;;;;;4.93;3.35;;;21.00;70.30;;;;;;10419157;28;20116;-64
2021/09/19 21:19:57;;;;;;;5.68;3.50;;;21.00;70.30;;;;;;10433531;28;20155;-64
2021/09/19 21:24:57;;;;;;;4.70;3.78;;;21.00;70.30;;;;;;10418839;28;20029;-64
2021/09/19 21:29:58;;;;;;;4.03;3.40;;;21.00;70.20;;;;;;10420244;28;20540;-64
2021/09/19 21:34:59;;;;;;;4.65;3.55;;;21.00;70.20;;;;;;10433379;28;20113;-64
2021/09/19 21:39:59;;;;;;;4.68;3.00;;;21.00;70.20;;;;;;10418533;28;20377;-65
2021/09/19 21:45:00;;;;;;;5.50;3.50;;;21.00;70.20;;;;;;10418219;28;20049;-64
2021/09/19 21:50:01;;;;;;;3.42;3.08;;;21.00;70.10;;;;;;10418381;28;20075;-65
2021/09/19 21:55:03;;;;;;;3.97;3.33;;;20.90;70.10;;;;;;10417942;28;20159;-65
2021/09/19 22:00:08;;;;;;;5.38;3.47;;;20.90;70.10;;;;;;10417701;28;20041;-64
2021/09/19 22:05:09;;;;;;;4.60;3.35;;;20.90;70.10;;;;;;10431036;28;20116;-65
2021/09/19 22:10:11;;;;;;;5.53;3.17;;;20.90;70.10;;;;;;10418642;28;20025;-65
2021/09/19 22:15:13;;;;;;;4.28;3.72;;;20.90;70.10;;;;;;10403547;28;20084;-65
2021/09/19 22:20:15;;;;;;;4.45;3.53;;;20.90;70.10;;;;;;10438415;28;20036;-65
2021/09/19 22:25:16;;;;;;;4.30;3.30;;;20.90;70.10;;;;;;10430126;28;20033;-65
2021/09/19 22:30:19;;;;;;;4.40;3.85;;;20.90;70.00;;;;;;10417800;28;20117;-64
2021/09/19 22:35:20;;;;;;;4.00;3.35;;;20.90;70.00;;;;;;10416653;28;20405;-64
2021/09/19 22:40:21;;;;;;;4.03;2.83;;;20.90;70.10;;;;;;10415913;28;20457;-64
2021/09/19 22:45:21;;;;;;;8.70;3.42;;;20.90;70.10;;;;;;10415607;28;20053;-64
2021/09/19 22:50:22;;;;;;;4.72;3.72;;;20.90;70.10;;;;;;10415950;28;20027;-65
2021/09/19 22:55:23;;;;;;;4.18;3.70;;;20.90;70.20;;;;;;10415197;28;20389;-64
2021/09/19 23:00:23;;;;;;;5.00;3.45;;;20.90;70.40;;;;;;10415443;28;20056;-64
2021/09/19 23:05:24;;;;;;;4.60;3.70;;;20.80;70.30;;;;;;10415067;28;20037;-65
2021/09/19 23:10:25;;;;;;;4.88;3.65;;;20.80;70.40;;;;;;10414944;28;20402;-65
2021/09/19 23:15:26;;;;;;;4.75;3.85;;;20.80;70.30;;;;;;10415078;28;20056;-65
2021/09/19 23:20:27;;;;;;;4.55;3.72;;;20.80;70.20;;;;;;10427281;28;20025;-65
2021/09/19 23:25:27;;;;;;;3.88;3.10;;;20.80;70.20;;;;;;10414637;28;20084;-64
2021/09/19 23:30:28;;;;;;;4.60;3.80;;;20.80;70.00;;;;;;10414378;28;20533;-64
2021/09/19 23:35:29;;;;;;;3.88;3.47;;;20.80;69.90;;;;;;10415089;28;20513;-65
2021/09/19 23:40:30;;;;;;;4.18;3.50;;;20.80;70.10;;;;;;10413847;28;20022;-64
2021/09/19 23:45:31;;;;;;;4.35;3.47;;;20.80;69.90;;;;;;10414911;28;20128;-64
2021/09/19 23:50:32;;;;;;;4.63;3.55;;;20.80;70.10;;;;;;10427122;28;20030;-65
2021/09/19 23:55:32;;;;;;;4.15;3.45;;;20.80;69.90;;;;;;10413547;28;20509;-64
